sensor_id;sensor_type;location;lat;lon;timestamp;pressure;altitude;pressure_sealevel;temperature;humidity
7052;BME280;3567;52.444;13.556;2023-05-23T00:01:34;100853.41;;;16.31;65.84
7052;BME280;3567;52.444;13.556;2023-05-23T00:04:02;100860.47;;;16.37;65.69
7052;BME280;3567;52.444;13.556;2023-05-23T00:06:28;100863.97;;;16.37;65.43
7052;BME280;3567;52.444;13.556;2023-05-23T00:08:53;100859.88;;;16.35;65.49
7052;BME280;3567;52.444;13.556;2023-05-23T00:11:18;100857.19;;;16.35;65.28
7052;BME280;3567;52.444;13.556;2023-05-23T00:13:48;100862.88;;;16.33;65.40
7052;BME280;3567;52.444;13.556;2023-05-23T00:16:15;100858.81;;;16.31;65.92
7052;BME280;3567;52.444;13.556;2023-05-23T00:18:40;100858.25;;;16.29;66.59
7052;BME280;3567;52.444;13.556;2023-05-23T00:21:07;100859.88;;;16.24;66.62
7052;BME280;3567;52.444;13.556;2023-05-23T00:23:34;100851.50;;;16.26;66.73
7052;BME280;3567;52.444;13.556;2023-05-23T00:25:59;100856.91;;;16.26;66.92
7052;BME280;3567;52.444;13.556;2023-05-23T00:28:25;100846.09;;;16.26;66.77
7052;BME280;3567;52.444;13.556;2023-05-23T00:30:50;100850.13;;;16.29;65.57
7052;BME280;3567;52.444;13.556;2023-05-23T00:33:16;100841.50;;;16.32;65.65
7052;BME280;3567;52.444;13.556;2023-05-23T00:35:42;100838.53;;;16.33;65.21
7052;BME280;3567;52.444;13.556;2023-05-23T00:38:07;100834.25;;;16.37;65.10
7052;BME280;3567;52.444;13.556;2023-05-23T00:40:33;100838.84;;;16.42;65.75
7052;BME280;3567;52.444;13.556;2023-05-23T00:42:59;100838.56;;;16.38;65.92
7052;BME280;3567;52.444;13.556;2023-05-23T00:45:25;100833.69;;;16.35;65.87
7052;BME280;3567;52.444;13.556;2023-05-23T00:47:51;100831.25;;;16.34;65.84
7052;BME280;3567;52.444;13.556;2023-05-23T00:50:17;100832.84;;;16.30;66.77
7052;BME280;3567;52.444;13.556;2023-05-23T00:52:44;100830.69;;;16.27;66.00
7052;BME280;3567;52.444;13.556;2023-05-23T00:55:10;100822.53;;;16.21;67.05
7052;BME280;3567;52.444;13.556;2023-05-23T00:57:36;100824.41;;;16.16;66.39
7052;BME280;3567;52.444;13.556;2023-05-23T01:00:07;100824.13;;;16.12;67.48
7052;BME280;3567;52.444;13.556;2023-05-23T01:02:36;100815.44;;;16.05;67.01
7052;BME280;3567;52.444;13.556;2023-05-23T01:05:05;100820.28;;;16.03;67.95
7052;BME280;3567;52.444;13.556;2023-05-23T01:07:31;100817.31;;;16.00;68.32
7052;BME280;3567;52.444;13.556;2023-05-23T01:09:56;100820.25;;;15.93;69.48
7052;BME280;3567;52.444;13.556;2023-05-23T01:12:36;100814.00;;;15.87;70.44
7052;BME280;3567;52.444;13.556;2023-05-23T01:15:08;100818.03;;;15.85;69.79
7052;BME280;3567;52.444;13.556;2023-05-23T01:17:58;100799.09;;;15.80;70.21
7052;BME280;3567;52.444;13.556;2023-05-23T01:20:30;100799.09;;;15.80;71.77
7052;BME280;3567;52.444;13.556;2023-05-23T01:28:04;100798.31;;;15.84;70.21
7052;BME280;3567;52.444;13.556;2023-05-23T01:30:34;100802.09;;;15.83;70.04
7052;BME280;3567;52.444;13.556;2023-05-23T01:33:01;100800.22;;;15.84;70.69
7052;BME280;3567;52.444;13.556;2023-05-23T01:35:27;100792.66;;;15.86;70.34
7052;BME280;3567;52.444;13.556;2023-05-23T01:37:54;100795.91;;;15.88;71.23
7052;BME280;3567;52.444;13.556;2023-05-23T01:40:21;100798.63;;;15.88;70.34
7052;BME280;3567;52.444;13.556;2023-05-23T01:42:46;100794.03;;;15.88;69.93
7052;BME280;3567;52.444;13.556;2023-05-23T01:45:13;100800.78;;;15.91;70.37
7052;BME280;3567;52.444;13.556;2023-05-23T01:47:39;100795.66;;;15.94;70.23
7052;BME280;3567;52.444;13.556;2023-05-23T01:50:06;100787.03;;;15.97;69.91
7052;BME280;3567;52.444;13.556;2023-05-23T01:52:32;100785.69;;;16.00;69.71
7052;BME280;3567;52.444;13.556;2023-05-23T01:54:58;100788.13;;;16.02;68.82
7052;BME280;3567;52.444;13.556;2023-05-23T01:57:25;100775.44;;;16.02;69.29
7052;BME280;3567;52.444;13.556;2023-05-23T01:59:53;100774.09;;;16.00;69.99
7052;BME280;3567;52.444;13.556;2023-05-23T02:02:18;100768.38;;;15.96;69.56
7052;BME280;3567;52.444;13.556;2023-05-23T02:04:44;100765.16;;;15.94;69.41
7052;BME280;3567;52.444;13.556;2023-05-23T02:07:09;100768.38;;;15.96;68.48
7052;BME280;3567;52.444;13.556;2023-05-23T02:09:34;100765.16;;;15.94;69.17
7052;BME280;3567;52.444;13.556;2023-05-23T02:12:00;100773.25;;;15.94;69.94
7052;BME280;3567;52.444;13.556;2023-05-23T02:14:25;100770.53;;;15.89;69.85
7052;BME280;3567;52.444;13.556;2023-05-23T02:16:52;100770.22;;;15.85;70.31
7052;BME280;3567;52.444;13.556;2023-05-23T02:19:18;100780.72;;;15.82;70.62
7052;BME280;3567;52.444;13.556;2023-05-23T02:21:43;100775.88;;;15.79;70.68
7052;BME280;3567;52.444;13.556;2023-05-23T02:24:09;100779.34;;;15.74;70.36
7052;BME280;3567;52.444;13.556;2023-05-23T02:26:34;100781.75;;;15.70;70.91
7052;BME280;3567;52.444;13.556;2023-05-23T02:28:59;100782.56;;;15.66;70.52
7052;BME280;3567;52.444;13.556;2023-05-23T02:31:25;100786.00;;;15.61;70.73
7052;BME280;3567;52.444;13.556;2023-05-23T02:33:51;100790.59;;;15.61;71.65
7052;BME280;3567;52.444;13.556;2023-05-23T02:36:17;100784.91;;;15.57;71.39
7052;BME280;3567;52.444;13.556;2023-05-23T02:38:43;100779.19;;;15.54;71.42
7052;BME280;3567;52.444;13.556;2023-05-23T02:41:08;100767.84;;;15.52;71.92
7052;BME280;3567;52.444;13.556;2023-05-23T02:43:34;100766.75;;;15.48;71.83
7052;BME280;3567;52.444;13.556;2023-05-23T02:45:59;100767.81;;;15.46;72.39
7052;BME280;3567;52.444;13.556;2023-05-23T02:48:25;100765.63;;;15.43;72.26
7052;BME280;3567;52.444;13.556;2023-05-23T02:50:50;100767.00;;;15.46;73.01
7052;BME280;3567;52.444;13.556;2023-05-23T02:53:16;100764.03;;;15.48;72.63
7052;BME280;3567;52.444;13.556;2023-05-23T02:55:41;100761.06;;;15.49;73.24
7052;BME280;3567;52.444;13.556;2023-05-23T02:58:07;100764.03;;;15.48;72.87
7052;BME280;3567;52.444;13.556;2023-05-23T03:00:33;100766.22;;;15.51;73.29
7052;BME280;3567;52.444;13.556;2023-05-23T03:02:58;100764.63;;;15.55;72.65
7052;BME280;3567;52.444;13.556;2023-05-23T03:05:23;100770.09;;;15.65;71.33
7052;BME280;3567;52.444;13.556;2023-05-23T03:07:49;100772.03;;;15.69;71.64
7052;BME280;3567;52.444;13.556;2023-05-23T03:10:16;100763.41;;;15.73;71.44
7052;BME280;3567;52.444;13.556;2023-05-23T03:12:41;100767.75;;;15.74;70.87
7052;BME280;3567;52.444;13.556;2023-05-23T03:15:08;100766.13;;;15.73;71.12
7052;BME280;3567;52.444;13.556;2023-05-23T03:17:34;100773.91;;;15.69;71.04
7052;BME280;3567;52.444;13.556;2023-05-23T03:19:59;100778.78;;;15.67;71.44
7052;BME280;3567;52.444;13.556;2023-05-23T03:22:24;100773.56;;;15.60;71.69
7052;BME280;3567;52.444;13.556;2023-05-23T03:24:50;100772.47;;;15.56;71.74
7052;BME280;3567;52.444;13.556;2023-05-23T03:27:15;100777.28;;;15.49;72.09
7052;BME280;3567;52.444;13.556;2023-05-23T03:29:40;100778.03;;;15.44;71.40
7052;BME280;3567;52.444;13.556;2023-05-23T03:32:06;100780.19;;;15.42;72.35
7052;BME280;3567;52.444;13.556;2023-05-23T03:34:31;100786.13;;;15.39;72.39
7052;BME280;3567;52.444;13.556;2023-05-23T03:36:58;100772.38;;;15.41;73.06
7052;BME280;3567;52.444;13.556;2023-05-23T03:39:23;100779.38;;;15.42;73.02
7052;BME280;3567;52.444;13.556;2023-05-23T03:41:49;100776.69;;;15.42;73.22
7052;BME280;3567;52.444;13.556;2023-05-23T03:44:15;100770.19;;;15.38;73.79
7052;BME280;3567;52.444;13.556;2023-05-23T03:46:40;100769.09;;;15.39;74.42
7052;BME280;3567;52.444;13.556;2023-05-23T03:49:06;100768.06;;;15.40;74.80
7052;BME280;3567;52.444;13.556;2023-05-23T03:51:32;100761.00;;;15.39;74.55
7052;BME280;3567;52.444;13.556;2023-05-23T03:53:57;100764.78;;;15.38;76.24
7052;BME280;3567;52.444;13.556;2023-05-23T03:56:23;100768.56;;;15.37;76.68
7052;BME280;3567;52.444;13.556;2023-05-23T03:58:48;100749.94;;;15.35;76.03
7052;BME280;3567;52.444;13.556;2023-05-23T04:01:13;100749.63;;;15.32;77.24
7052;BME280;3567;52.444;13.556;2023-05-23T04:03:39;100750.16;;;15.29;77.20
7052;BME280;3567;52.444;13.556;2023-05-23T04:06:04;100738.03;;;15.31;76.39
7052;BME280;3567;52.444;13.556;2023-05-23T04:08:30;100729.13;;;15.31;75.85
7052;BME280;3567;52.444;13.556;2023-05-23T04:10:59;100737.75;;;15.33;75.81
7052;BME280;3567;52.444;13.556;2023-05-23T04:13:24;100727.81;;;15.38;74.88
7052;BME280;3567;52.444;13.556;2023-05-23T04:15:50;100734.59;;;15.41;74.73
7052;BME280;3567;52.444;13.556;2023-05-23T04:18:16;100742.13;;;15.44;74.35
7052;BME280;3567;52.444;13.556;2023-05-23T04:20:42;100743.78;;;15.45;73.81
7052;BME280;3567;52.444;13.556;2023-05-23T04:23:07;100750.81;;;15.46;74.26
7052;BME280;3567;52.444;13.556;2023-05-23T04:25:32;100759.44;;;15.48;75.27
7052;BME280;3567;52.444;13.556;2023-05-23T04:27:59;100764.03;;;15.48;74.61
7052;BME280;3567;52.444;13.556;2023-05-23T04:30:25;100769.44;;;15.48;74.53
7052;BME280;3567;52.444;13.556;2023-05-23T04:32:50;100771.88;;;15.49;74.81
7052;BME280;3567;52.444;13.556;2023-05-23T04:35:16;100776.22;;;15.50;75.59
7052;BME280;3567;52.444;13.556;2023-05-23T04:37:41;100772.97;;;15.53;75.36
7052;BME280;3567;52.444;13.556;2023-05-23T04:40:07;100772.97;;;15.53;75.65
7052;BME280;3567;52.444;13.556;2023-05-23T04:42:33;100770.28;;;15.53;75.05
7052;BME280;3567;52.444;13.556;2023-05-23T04:44:58;100760.03;;;15.55;74.70
7052;BME280;3567;52.444;13.556;2023-05-23T04:47:26;100758.44;;;15.59;74.51
7052;BME280;3567;52.444;13.556;2023-05-23T04:49:53;100751.22;;;15.65;75.67
7052;BME280;3567;52.444;13.556;2023-05-23T04:52:19;100750.97;;;15.66;76.23
7052;BME280;3567;52.444;13.556;2023-05-23T04:54:44;100745.28;;;15.68;75.54
7052;BME280;3567;52.444;13.556;2023-05-23T04:57:11;100738.53;;;15.70;75.26
7052;BME280;3567;52.444;13.556;2023-05-23T04:59:37;100739.63;;;15.69;76.56
7052;BME280;3567;52.444;13.556;2023-05-23T05:02:02;100748.00;;;15.68;75.55
7052;BME280;3567;52.444;13.556;2023-05-23T05:04:29;100750.44;;;15.69;75.52
7052;BME280;3567;52.444;13.556;2023-05-23T05:06:55;100754.75;;;15.70;74.90
7052;BME280;3567;52.444;13.556;2023-05-23T05:09:20;100746.66;;;15.70;74.10
7052;BME280;3567;52.444;13.556;2023-05-23T05:11:46;100756.63;;;15.70;74.03
7052;BME280;3567;52.444;13.556;2023-05-23T05:14:11;100760.16;;;15.70;74.82
7052;BME280;3567;52.444;13.556;2023-05-23T05:16:36;100755.31;;;15.73;75.97
7052;BME280;3567;52.444;13.556;2023-05-23T05:19:02;100749.91;;;15.73;76.84
7052;BME280;3567;52.444;13.556;2023-05-23T05:21:27;100741.53;;;15.74;77.67
7052;BME280;3567;52.444;13.556;2023-05-23T05:23:52;100736.94;;;15.75;77.80
7052;BME280;3567;52.444;13.556;2023-05-23T05:26:18;100732.34;;;15.75;77.39
7052;BME280;3567;52.444;13.556;2023-05-23T05:28:43;100733.75;;;15.78;78.01
7052;BME280;3567;52.444;13.556;2023-05-23T05:31:09;100741.28;;;15.81;79.67
7052;BME280;3567;52.444;13.556;2023-05-23T05:33:39;100745.63;;;15.82;79.19
7052;BME280;3567;52.444;13.556;2023-05-23T05:36:06;100753.72;;;15.82;77.90
7052;BME280;3567;52.444;13.556;2023-05-23T05:38:31;100758.06;;;15.83;79.82
7052;BME280;3567;52.444;13.556;2023-05-23T05:40:57;100765.59;;;15.81;79.81
7052;BME280;3567;52.444;13.556;2023-05-23T05:43:22;100770.75;;;15.82;80.06
7052;BME280;3567;52.444;13.556;2023-05-23T05:45:48;100771.56;;;15.83;80.70
7052;BME280;3567;52.444;13.556;2023-05-23T05:48:13;100772.91;;;15.80;80.42
7052;BME280;3567;52.444;13.556;2023-05-23T05:50:38;100769.38;;;15.80;80.78
7052;BME280;3567;52.444;13.556;2023-05-23T05:53:04;100770.97;;;15.76;81.15
7052;BME280;3567;52.444;13.556;2023-05-23T05:55:29;100777.72;;;15.73;80.78
7052;BME280;3567;52.444;13.556;2023-05-23T05:57:54;100776.91;;;15.73;81.01
7052;BME280;3567;52.444;13.556;2023-05-23T06:00:20;100778.53;;;15.74;80.59
7052;BME280;3567;52.444;13.556;2023-05-23T06:02:46;100780.44;;;15.73;81.54
7052;BME280;3567;52.444;13.556;2023-05-23T06:05:12;100782.03;;;15.69;81.91
7052;BME280;3567;52.444;13.556;2023-05-23T06:07:39;100773.63;;;15.65;82.25
7052;BME280;3567;52.444;13.556;2023-05-23T06:10:05;100774.19;;;15.67;83.38
7052;BME280;3567;52.444;13.556;2023-05-23T06:12:31;100772.81;;;15.65;84.77
7052;BME280;3567;52.444;13.556;2023-05-23T06:14:57;100769.81;;;15.61;84.34
7052;BME280;3567;52.444;13.556;2023-05-23T06:17:22;100763.28;;;15.57;83.32
7052;BME280;3567;52.444;13.556;2023-05-23T06:19:47;100760.31;;;15.59;83.47
7052;BME280;3567;52.444;13.556;2023-05-23T06:22:13;100758.44;;;15.59;84.27
7052;BME280;3567;52.444;13.556;2023-05-23T06:24:38;100761.13;;;15.59;83.38
7052;BME280;3567;52.444;13.556;2023-05-23T06:27:04;100759.88;;;15.67;82.87
7052;BME280;3567;52.444;13.556;2023-05-23T06:29:29;100751.03;;;15.77;82.35
7052;BME280;3567;52.444;13.556;2023-05-23T06:31:55;100746.47;;;15.87;83.05
7052;BME280;3567;52.444;13.556;2023-05-23T06:34:21;100752.19;;;15.96;84.09
7052;BME280;3567;52.444;13.556;2023-05-23T06:36:46;100749.50;;;16.06;83.92
7052;BME280;3567;52.444;13.556;2023-05-23T06:39:12;100750.06;;;16.13;83.88
7052;BME280;3567;52.444;13.556;2023-05-23T06:41:38;100743.63;;;16.19;82.39
7052;BME280;3567;52.444;13.556;2023-05-23T06:44:04;100750.13;;;16.29;80.90
7052;BME280;3567;52.444;13.556;2023-05-23T06:46:30;100759.34;;;16.38;79.95
7052;BME280;3567;52.444;13.556;2023-05-23T06:48:55;100756.94;;;16.46;78.48
7052;BME280;3567;52.444;13.556;2023-05-23T06:51:21;100765.63;;;16.59;78.62
7052;BME280;3567;52.444;13.556;2023-05-23T06:53:46;100763.25;;;16.72;77.68
7052;BME280;3567;52.444;13.556;2023-05-23T06:56:11;100770.00;;;16.85;76.98
7052;BME280;3567;52.444;13.556;2023-05-23T06:58:37;100760.28;;;16.99;76.31
7052;BME280;3567;52.444;13.556;2023-05-23T07:01:02;100759.72;;;17.13;74.80
7052;BME280;3567;52.444;13.556;2023-05-23T07:03:28;100760.25;;;17.25;74.80
7052;BME280;3567;52.444;13.556;2023-05-23T07:05:53;100761.06;;;17.36;75.21
7052;BME280;3567;52.444;13.556;2023-05-23T07:08:18;100749.69;;;17.44;74.79
7052;BME280;3567;52.444;13.556;2023-05-23T07:10:44;100748.56;;;17.55;73.51
7052;BME280;3567;52.444;13.556;2023-05-23T07:13:09;100754.25;;;17.69;72.10
7052;BME280;3567;52.444;13.556;2023-05-23T07:15:34;100744.72;;;17.87;71.99
7052;BME280;3567;52.444;13.556;2023-05-23T07:18:00;100745.72;;;18.11;71.52
7052;BME280;3567;52.444;13.556;2023-05-23T07:20:25;100752.16;;;18.20;69.85
7052;BME280;3567;52.444;13.556;2023-05-23T07:22:50;100746.72;;;18.25;69.21
7052;BME280;3567;52.444;13.556;2023-05-23T07:25:16;100753.97;;;18.35;69.16
7052;BME280;3567;52.444;13.556;2023-05-23T07:27:42;100743.84;;;18.51;68.96
7052;BME280;3567;52.444;13.556;2023-05-23T07:30:08;100756.78;;;18.69;70.04
7052;BME280;3567;52.444;13.556;2023-05-23T07:32:34;100744.22;;;18.78;67.06
7052;BME280;3567;52.444;13.556;2023-05-23T07:35:00;100737.59;;;18.95;65.61
7052;BME280;3567;52.444;13.556;2023-05-23T07:37:25;100737.47;;;19.10;64.80
7052;BME280;3567;52.444;13.556;2023-05-23T07:39:52;100739.19;;;19.30;64.42
7052;BME280;3567;52.444;13.556;2023-05-23T07:42:17;100737.94;;;19.46;65.07
7052;BME280;3567;52.444;13.556;2023-05-23T07:44:42;100737.81;;;19.56;65.01
7052;BME280;3567;52.444;13.556;2023-05-23T07:47:08;100742.94;;;19.63;63.50
7052;BME280;3567;52.444;13.556;2023-05-23T07:49:33;100730.34;;;19.72;63.43
7052;BME280;3567;52.444;13.556;2023-05-23T07:52:00;100728.00;;;19.84;61.69
7052;BME280;3567;52.444;13.556;2023-05-23T07:54:25;100720.31;;;19.92;61.06
7052;BME280;3567;52.444;13.556;2023-05-23T07:56:52;100722.91;;;20.02;62.08
7052;BME280;3567;52.444;13.556;2023-05-23T07:59:18;100722.13;;;20.20;61.47
7052;BME280;3567;52.444;13.556;2023-05-23T08:01:43;100727.78;;;20.42;59.60
7052;BME280;3567;52.444;13.556;2023-05-23T08:04:09;100724.88;;;20.58;58.37
7052;BME280;3567;52.444;13.556;2023-05-23T08:06:34;100725.28;;;20.84;58.27
7052;BME280;3567;52.444;13.556;2023-05-23T08:09:02;100720.22;;;21.10;57.60
7052;BME280;3567;52.444;13.556;2023-05-23T08:11:27;100734.31;;;21.31;56.51
7052;BME280;3567;52.444;13.556;2023-05-23T08:13:54;100727.75;;;21.45;54.69
7052;BME280;3567;52.444;13.556;2023-05-23T08:16:19;100739.25;;;21.42;54.78
7052;BME280;3567;52.444;13.556;2023-05-23T08:18:45;100736.41;;;21.34;53.88
7052;BME280;3567;52.444;13.556;2023-05-23T08:21:10;100736.53;;;21.42;53.57
7052;BME280;3567;52.444;13.556;2023-05-23T08:23:36;100739.84;;;21.39;52.42
7052;BME280;3567;52.444;13.556;2023-05-23T08:26:01;100734.41;;;21.39;53.23
7052;BME280;3567;52.444;13.556;2023-05-23T08:28:27;100740.47;;;21.36;53.24
7052;BME280;3567;52.444;13.556;2023-05-23T08:30:52;100735.13;;;21.31;52.34
7052;BME280;3567;52.444;13.556;2023-05-23T08:33:18;100743.44;;;21.21;53.58
7052;BME280;3567;52.444;13.556;2023-05-23T08:35:43;100746.34;;;21.25;52.55
7052;BME280;3567;52.444;13.556;2023-05-23T08:38:09;100745.91;;;21.36;53.12
7052;BME280;3567;52.444;13.556;2023-05-23T08:40:35;100753.59;;;21.48;52.03
7052;BME280;3567;52.444;13.556;2023-05-23T08:43:01;100752.09;;;21.56;52.48
7052;BME280;3567;52.444;13.556;2023-05-23T08:45:26;100757.13;;;21.49;51.20
7052;BME280;3567;52.444;13.556;2023-05-23T08:47:54;100757.13;;;21.49;51.11
7052;BME280;3567;52.444;13.556;2023-05-23T08:50:20;100758.22;;;21.34;51.54
7052;BME280;3567;52.444;13.556;2023-05-23T08:52:56;100763.47;;;21.44;53.05
7052;BME280;3567;52.444;13.556;2023-05-23T08:55:27;100766.72;;;21.60;51.96
7052;BME280;3567;52.444;13.556;2023-05-23T08:57:57;100767.97;;;21.81;52.30
7052;BME280;3567;52.444;13.556;2023-05-23T09:00:27;100762.09;;;22.15;52.37
7052;BME280;3567;52.444;13.556;2023-05-23T09:02:52;100763.25;;;22.37;51.22
7052;BME280;3567;52.444;13.556;2023-05-23T09:05:19;100766.63;;;22.20;51.30
7052;BME280;3567;52.444;13.556;2023-05-23T09:07:45;100766.53;;;21.97;51.67
7052;BME280;3567;52.444;13.556;2023-05-23T09:10:12;100775.63;;;21.93;52.89
7052;BME280;3567;52.444;13.556;2023-05-23T09:12:38;100780.78;;;21.94;53.66
7052;BME280;3567;52.444;13.556;2023-05-23T09:15:05;100782.09;;;21.83;52.83
7052;BME280;3567;52.444;13.556;2023-05-23T09:17:32;100775.53;;;21.84;52.76
7052;BME280;3567;52.444;13.556;2023-05-23T09:19:58;100773.00;;;22.02;52.79
7052;BME280;3567;52.444;13.556;2023-05-23T09:22:25;100778.06;;;22.22;53.63
7052;BME280;3567;52.444;13.556;2023-05-23T09:24:51;100774.81;;;22.34;53.26
7052;BME280;3567;52.444;13.556;2023-05-23T09:27:17;100776.31;;;22.26;53.61
7052;BME280;3567;52.444;13.556;2023-05-23T09:29:42;100783.25;;;22.46;54.13
7052;BME280;3567;52.444;13.556;2023-05-23T09:32:14;100772.81;;;22.62;54.13
7052;BME280;3567;52.444;13.556;2023-05-23T09:35:02;100779.19;;;22.93;53.75
7052;BME280;3567;52.444;13.556;2023-05-23T09:37:34;100784.34;;;23.17;54.19
7052;BME280;3567;52.444;13.556;2023-05-23T09:40:00;100772.75;;;23.43;54.27
7052;BME280;3567;52.444;13.556;2023-05-23T09:42:32;100780.88;;;23.57;53.98
7052;BME280;3567;52.444;13.556;2023-05-23T09:44:58;100790.56;;;23.63;54.01
7052;BME280;3567;52.444;13.556;2023-05-23T09:47:24;100780.72;;;23.62;53.51
7052;BME280;3567;52.444;13.556;2023-05-23T09:49:50;100789.16;;;23.65;53.77
7052;BME280;3567;52.444;13.556;2023-05-23T09:52:15;100790.63;;;23.80;54.70
7052;BME280;3567;52.444;13.556;2023-05-23T09:54:42;100789.16;;;23.74;54.42
7052;BME280;3567;52.444;13.556;2023-05-23T09:57:09;100796.91;;;23.49;55.59
7052;BME280;3567;52.444;13.556;2023-05-23T09:59:39;100808.94;;;23.48;56.29
7052;BME280;3567;52.444;13.556;2023-05-23T10:02:07;100791.66;;;23.62;55.51
7052;BME280;3567;52.444;13.556;2023-05-23T10:04:36;100793.75;;;23.87;55.91
7052;BME280;3567;52.444;13.556;2023-05-23T10:07:13;100788.03;;;24.15;55.51
7052;BME280;3567;52.444;13.556;2023-05-23T10:09:46;100779.84;;;24.32;53.70
7052;BME280;3567;52.444;13.556;2023-05-23T10:14:58;100774.44;;;23.92;53.88
7052;BME280;3567;52.444;13.556;2023-05-23T10:20:00;100803.34;;;23.76;55.20
7052;BME280;3567;52.444;13.556;2023-05-23T10:22:33;100786.81;;;23.81;54.84
7052;BME280;3567;52.444;13.556;2023-05-23T10:24:59;100773.84;;;23.64;53.66
7052;BME280;3567;52.444;13.556;2023-05-23T10:27:25;100791.44;;;23.81;54.70
7052;BME280;3567;52.444;13.556;2023-05-23T10:29:51;100780.25;;;23.99;53.30
7052;BME280;3567;52.444;13.556;2023-05-23T10:32:17;100790.19;;;23.87;51.95
7052;BME280;3567;52.444;13.556;2023-05-23T10:34:54;100800.97;;;23.83;54.25
7052;BME280;3567;52.444;13.556;2023-05-23T10:40:30;100795.19;;;23.93;55.14
7052;BME280;3567;52.444;13.556;2023-05-23T10:43:02;100799.75;;;23.67;56.22
7052;BME280;3567;52.444;13.556;2023-05-23T10:45:38;100798.56;;;23.59;57.73
7052;BME280;3567;52.444;13.556;2023-05-23T10:48:19;100794.53;;;23.57;59.48
7052;BME280;3567;52.444;13.556;2023-05-23T10:50:45;100800.47;;;23.50;59.10
7052;BME280;3567;52.444;13.556;2023-05-23T10:53:15;100805.00;;;23.32;59.98
7052;BME280;3567;52.444;13.556;2023-05-23T10:55:40;100806.44;;;23.30;60.86
7052;BME280;3567;52.444;13.556;2023-05-23T10:58:14;100808.66;;;23.27;61.28
7052;BME280;3567;52.444;13.556;2023-05-23T11:00:49;100816.03;;;22.82;65.08
7052;BME280;3567;52.444;13.556;2023-05-23T11:03:15;100825.94;;;22.42;67.35
7052;BME280;3567;52.444;13.556;2023-05-23T11:05:46;100836.03;;;21.86;71.29
7052;BME280;3567;52.444;13.556;2023-05-23T11:08:19;100837.88;;;21.44;72.69
7052;BME280;3567;52.444;13.556;2023-05-23T11:13:19;100838.25;;;21.84;73.83
7052;BME280;3567;52.444;13.556;2023-05-23T11:15:46;100839.06;;;22.54;72.33
7052;BME280;3567;52.444;13.556;2023-05-23T11:18:23;100840.34;;;23.51;70.48
7052;BME280;3567;52.444;13.556;2023-05-23T11:20:51;100833.28;;;24.21;67.41
7052;BME280;3567;52.444;13.556;2023-05-23T11:23:17;100833.38;;;24.81;65.44
7052;BME280;3567;52.444;13.556;2023-05-23T11:25:50;100831.16;;;25.18;63.24
7052;BME280;3567;52.444;13.556;2023-05-23T11:28:16;100829.84;;;24.81;63.28
7052;BME280;3567;52.444;13.556;2023-05-23T11:30:42;100830.31;;;24.40;64.03
7052;BME280;3567;52.444;13.556;2023-05-23T11:33:09;100820.66;;;24.02;65.92
7052;BME280;3567;52.444;13.556;2023-05-23T11:35:42;100835.84;;;23.77;66.32
7052;BME280;3567;52.444;13.556;2023-05-23T11:38:08;100833.41;;;23.22;67.18
7052;BME280;3567;52.444;13.556;2023-05-23T11:40:39;100838.03;;;22.63;69.91
7052;BME280;3567;52.444;13.556;2023-05-23T11:43:06;100842.50;;;22.45;70.54
7052;BME280;3567;52.444;13.556;2023-05-23T11:45:34;100843.34;;;22.32;71.43
7052;BME280;3567;52.444;13.556;2023-05-23T11:48:07;100839.31;;;22.16;71.60
7052;BME280;3567;52.444;13.556;2023-05-23T11:50:34;100843.72;;;21.98;72.06
7052;BME280;3567;52.444;13.556;2023-05-23T11:53:07;100847.31;;;21.66;73.46
7052;BME280;3567;52.444;13.556;2023-05-23T11:55:32;100851.78;;;21.24;75.52
7052;BME280;3567;52.444;13.556;2023-05-23T11:57:59;100854.63;;;21.00;76.36
7052;BME280;3567;52.444;13.556;2023-05-23T12:00:25;100851.69;;;20.78;77.37
7052;BME280;3567;52.444;13.556;2023-05-23T12:02:50;100853.81;;;20.62;77.13
7052;BME280;3567;52.444;13.556;2023-05-23T12:05:16;100865.34;;;20.54;77.94
7052;BME280;3567;52.444;13.556;2023-05-23T12:07:47;100869.50;;;20.22;80.75
7052;BME280;3567;52.444;13.556;2023-05-23T12:10:16;100878.19;;;20.00;82.05
7052;BME280;3567;52.444;13.556;2023-05-23T12:12:42;100877.66;;;19.69;83.13
7052;BME280;3567;52.444;13.556;2023-05-23T12:15:09;100874.09;;;19.74;82.99
7052;BME280;3567;52.444;13.556;2023-05-23T12:17:36;100875.84;;;19.59;84.98
7052;BME280;3567;52.444;13.556;2023-05-23T12:20:05;100872.69;;;19.42;87.04
7052;BME280;3567;52.444;13.556;2023-05-23T12:22:31;100868.78;;;19.24;87.99
7052;BME280;3567;52.444;13.556;2023-05-23T12:24:57;100869.38;;;19.16;89.46
7052;BME280;3567;52.444;13.556;2023-05-23T12:27:29;100862.88;;;19.12;90.51
7052;BME280;3567;52.444;13.556;2023-05-23T12:30:09;100873.69;;;19.17;91.89
7052;BME280;3567;52.444;13.556;2023-05-23T12:32:39;100868.31;;;19.12;91.94
7052;BME280;3567;52.444;13.556;2023-05-23T12:35:05;100870.44;;;19.20;92.09
7052;BME280;3567;52.444;13.556;2023-05-23T12:37:31;100873.50;;;19.43;92.31
7052;BME280;3567;52.444;13.556;2023-05-23T12:39:56;100873.84;;;19.70;91.29
7052;BME280;3567;52.444;13.556;2023-05-23T12:42:21;100869.16;;;20.05;89.94
7052;BME280;3567;52.444;13.556;2023-05-23T12:44:50;100864.00;;;20.27;88.46
7052;BME280;3567;52.444;13.556;2023-05-23T12:47:16;100867.72;;;20.36;87.16
7052;BME280;3567;52.444;13.556;2023-05-23T12:49:41;100872.75;;;20.24;85.45
7052;BME280;3567;52.444;13.556;2023-05-23T12:52:08;100880.53;;;20.07;85.54
7052;BME280;3567;52.444;13.556;2023-05-23T12:54:34;100875.00;;;19.93;85.84
7052;BME280;3567;52.444;13.556;2023-05-23T12:56:59;100876.47;;;19.80;85.25
7052;BME280;3567;52.444;13.556;2023-05-23T12:59:24;100878.31;;;19.85;85.29
7052;BME280;3567;52.444;13.556;2023-05-23T13:01:50;100879.56;;;19.98;85.22
7052;BME280;3567;52.444;13.556;2023-05-23T13:04:15;100885.56;;;19.95;83.41
7052;BME280;3567;52.444;13.556;2023-05-23T13:06:41;100882.03;;;19.65;84.31
7052;BME280;3567;52.444;13.556;2023-05-23T13:09:06;100884.38;;;19.43;84.59
7052;BME280;3567;52.444;13.556;2023-05-23T13:11:32;100894.50;;;19.32;84.92
7052;BME280;3567;52.444;13.556;2023-05-23T13:13:57;100887.25;;;19.22;85.37